Time,TemperatureF,DewpointF,PressureIn,WindDirection,WindDirectionDegrees,WindSpeedMPH,WindSpeedGustMPH,Humidity,HourlyPrecipIn,Conditions,Clouds,dailyrainin,SoftwareType,DateUTC
2013-04-15 00:00:00,37.1,37.1,29.85,North,356,0.0,6.0,100,0.00,,,-99.99,Weather View 32 v60,2013-04-15 04:00:00,
2013-04-15 00:05:00,37.0,37.0,29.86,North,356,0.0,6.0,100,0.00,,,-99.99,Weather View 32 v60,2013-04-15 04:05:00,
2013-04-15 00:10:00,36.7,36.7,29.86,North,356,0.0,6.0,100,0.00,,,-99.99,Weather View 32 v60,2013-04-15 04:10:00,
2013-04-15 00:15:00,36.3,36.3,29.85,North,356,0.0,4.0,100,0.00,,,-99.99,Weather View 32 v60,2013-04-15 04:15:00,
2013-04-15 00:20:00,36.1,36.1,29.86,North,356,0.0,2.0,100,0.00,,,-99.99,Weather View 32 v60,2013-04-15 04:20:00,
2013-04-15 00:25:00,35.9,-44.6,29.86,North,356,0.0,2.0,2,0.00,,,-99.99,Weather View 32 v60,2013-04-15 04:25:00,
2013-04-15 00:30:00,36.0,-55.8,29.86,North,356,0.0,2.0,1,0.00,,,-99.99,Weather View 32 v60,2013-04-15 04:30:00,
2013-04-15 00:35:00,36.0,-44.6,29.86,North,356,0.0,0.0,2,0.00,,,-99.99,Weather View 32 v60,2013-04-15 04:35:00,
2013-04-15 00:45:00,36.2,36.2,29.86,North,358,0.0,0.0,100,0.00,,,-99.99,Weather View 32 v60,2013-04-15 04:45:00,
2013-04-15 00:50:00,36.2,-55.7,29.86,North,0,0.0,1.0,1,0.00,,,-99.99,Weather View 32 v60,2013-04-15 04:50:00,
2013-04-15 00:55:00,36.3,-55.6,29.86,North,3,0.0,3.0,1,0.00,,,-99.99,Weather View 32 v60,2013-04-15 04:55:00,
2013-04-15 01:05:00,36.5,36.5,29.87,North,3,0.0,3.0,100,0.00,,,-99.99,Weather View 32 v60,2013-04-15 05:05:00,
2013-04-15 01:10:00,36.6,36.6,29.87,North,3,0.0,3.0,100,0.00,,,-99.99,Weather View 32 v60,2013-04-15 05:10:00,
2013-04-15 01:15:00,36.8,36.8,29.87,North,3,0.0,3.0,100,0.00,,,-99.99,Weather View 32 v60,2013-04-15 05:15:00,
2013-04-15 01:20:00,36.7,36.7,29.87,North,3,0.0,3.0,100,0.00,,,-99.99,Weather View 32 v60,2013-04-15 05:20:00,
2013-04-15 01:25:00,35.8,35.8,29.87,North,3,0.0,3.0,100,0.00,,,-99.99,Weather View 32 v60,2013-04-15 05:25:00,
2013-04-15 01:30:00,34.9,-12.6,29.87,North,3,0.0,3.0,12,0.00,,,-99.99,Weather View 32 v60,2013-04-15 05:30:00,
2013-04-15 01:35:00,34.1,1.9,29.87,North,3,0.0,3.0,25,0.00,,,-99.99,Weather View 32 v60,2013-04-15 05:35:00,
2013-04-15 01:40:00,33.6,18.7,29.87,North,3,0.0,3.0,54,0.00,,,-99.99,Weather View 32 v60,2013-04-15 05:40:00,
2013-04-15 01:45:00,33.2,33.2,29.88,North,3,0.0,3.0,100,0.00,,,-99.99,Weather View 32 v60,2013-04-15 05:45:00,
2013-04-15 01:50:00,33.1,33.1,29.88,North,3,0.0,3.0,100,0.00,,,-99.99,Weather View 32 v60,2013-04-15 05:50:00,
2013-04-15 01:55:00,33.1,33.1,29.88,North,3,0.0,0.0,100,0.00,,,-99.99,Weather View 32 v60,2013-04-15 05:55:00,
2013-04-15 02:00:00,33.0,33.0,29.88,North,0,0.0,3.0,100,0.00,,,-99.99,Weather View 32 v60,2013-04-15 06:00:00,
2013-04-15 02:10:00,33.6,33.6,29.87,North,354,3.0,5.0,100,0.00,,,-99.99,Weather View 32 v60,2013-04-15 06:10:00,
2013-04-15 02:15:00,34.3,34.3,29.87,NNW,347,0.0,5.0,100,0.00,,,-99.99,Weather View 32 v60,2013-04-15 06:15:00,
2013-04-15 02:20:00,34.5,31.3,29.87,North,0,0.0,5.0,88,0.00,,,-99.99,Weather View 32 v60,2013-04-15 06:20:00,
2013-04-15 02:25:00,34.0,30.8,29.87,North,0,0.0,5.0,88,0.00,,,-99.99,Weather View 32 v60,2013-04-15 06:25:00,
2013-04-15 02:30:00,33.1,33.1,29.88,North,0,0.0,5.0,100,0.00,,,-99.99,Weather View 32 v60,2013-04-15 06:30:00,
2013-04-15 02:35:00,32.9,32.9,29.88,North,0,0.0,5.0,100,0.00,,,-99.99,Weather View 32 v60,2013-04-15 06:35:00,
2013-04-15 02:40:00,33.0,-2.7,29.88,North,0,0.0,5.0,21,0.00,,,-99.99,Weather View 32 v60,2013-04-15 06:40:00,
2013-04-15 02:50:00,33.4,33.4,29.87,North,0,0.0,5.0,100,0.00,,,-99.99,Weather View 32 v60,2013-04-15 06:50:00,
2013-04-15 02:55:00,33.3,33.3,29.87,North,0,0.0,5.0,100,0.00,,,-99.99,Weather View 32 v60,2013-04-15 06:55:00,
2013-04-15 03:00:00,33.4,33.4,29.88,North,0,0.0,5.0,100,0.00,,,-99.99,Weather View 32 v60,2013-04-15 07:00:00,
2013-04-15 03:05:00,33.1,33.1,29.87,North,0,0.0,4.0,100,0.00,,,-99.99,Weather View 32 v60,2013-04-15 07:05:00,
2013-04-15 03:46:00,31.2,31.2,29.88,North,0,0.0,4.0,100,0.00,,,-99.99,Weather View 32 v60,2013-04-15 07:46:00,
2013-04-15 03:50:00,31.4,22.4,29.89,North,0,0.0,0.0,69,0.00,,,-99.99,Weather View 32 v60,2013-04-15 07:50:00,
2013-04-15 03:54:00,31.4,22.4,29.89,North,0,0.0,0.0,69,0.00,,,-99.99,Weather View 32 v60,2013-04-15 07:54:00,
2013-04-15 04:00:00,32.3,-22.5,29.90,North,0,0.0,2.0,8,0.00,,,-99.99,Weather View 32 v60,2013-04-15 08:00:00,
2013-04-15 04:05:00,31.9,16.7,29.90,North,0,0.0,2.0,53,0.00,,,-99.99,Weather View 32 v60,2013-04-15 08:05:00,
2013-04-15 04:10:00,31.7,24.4,29.90,North,352,0.0,3.0,74,0.00,,,-99.99,Weather View 32 v60,2013-04-15 08:10:00,
2013-04-15 04:15:00,32.4,32.4,29.90,North,350,2.0,4.0,100,0.00,,,-99.99,Weather View 32 v60,2013-04-15 08:15:00,
2013-04-15 04:25:00,32.2,32.2,29.90,North,354,0.0,4.0,100,0.00,,,-99.99,Weather View 32 v60,2013-04-15 08:25:00,
2013-04-15 04:30:00,32.0,32.0,29.90,North,354,0.0,4.0,100,0.00,,,-99.99,Weather View 32 v60,2013-04-15 08:30:00,
2013-04-15 04:35:00,32.0,-22.7,29.90,North,354,0.0,4.0,8,0.00,,,-99.99,Weather View 32 v60,2013-04-15 08:35:00,
2013-04-15 04:40:00,31.9,31.9,29.90,North,0,1.0,4.0,100,0.00,,,-99.99,Weather View 32 v60,2013-04-15 08:40:00,
2013-04-15 04:45:00,32.0,32.0,29.91,North,0,0.0,4.0,100,0.00,,,-99.99,Weather View 32 v60,2013-04-15 08:45:00,
2013-04-15 04:50:00,31.9,31.9,29.91,North,0,0.0,4.0,100,0.00,,,-99.99,Weather View 32 v60,2013-04-15 08:50:00,
2013-04-15 04:55:00,31.9,31.9,29.91,North,0,0.0,4.0,100,0.00,,,-99.99,Weather View 32 v60,2013-04-15 08:55:00,
2013-04-15 05:00:00,31.9,-22.8,29.91,North,0,0.0,4.0,8,0.00,,,-99.99,Weather View 32 v60,2013-04-15 09:00:00,
2013-04-15 05:05:00,32.2,-22.6,29.92,North,359,0.0,4.0,8,0.00,,,-99.99,Weather View 32 v60,2013-04-15 09:05:00,
2013-04-15 05:10:00,32.4,32.4,29.92,North,359,0.0,4.0,100,0.00,,,-99.99,Weather View 32 v60,2013-04-15 09:10:00,
2013-04-15 05:15:00,32.2,32.2,29.93,North,359,0.0,4.0,100,0.00,,,-99.99,Weather View 32 v60,2013-04-15 09:15:00,
2013-04-15 05:20:00,32.0,16.8,29.93,North,359,0.0,3.0,53,0.00,,,-99.99,Weather View 32 v60,2013-04-15 09:20:00,
2013-04-15 05:25:00,32.1,14.1,29.93,North,359,0.0,3.0,47,0.00,,,-99.99,Weather View 32 v60,2013-04-15 09:25:00,
2013-04-15 05:30:00,32.1,14.1,29.93,North,359,0.0,3.0,47,0.00,,,-99.99,Weather View 32 v60,2013-04-15 09:30:00,
2013-04-15 05:35:00,32.1,14.1,29.93,North,359,0.0,3.0,47,0.00,,,-99.99,Weather View 32 v60,2013-04-15 09:35:00,
2013-04-15 05:40:00,32.1,32.1,29.94,North,359,0.0,3.0,100,0.00,,,-99.99,Weather View 32 v60,2013-04-15 09:40:00,
2013-04-15 05:45:00,31.9,31.9,29.94,North,359,0.0,2.0,100,0.00,,,-99.99,Weather View 32 v60,2013-04-15 09:45:00,
2013-04-15 05:50:00,32.0,32.0,29.94,North,359,0.0,2.0,100,0.00,,,-99.99,Weather View 32 v60,2013-04-15 09:50:00,
2013-04-15 05:55:00,32.5,11.4,29.95,North,359,0.0,2.0,41,0.00,,,-99.99,Weather View 32 v60,2013-04-15 09:55:00,
2013-04-15 06:00:00,32.5,32.5,29.95,North,359,0.0,2.0,100,0.00,,,-99.99,Weather View 32 v60,2013-04-15 10:00:00,
2013-04-15 06:05:00,32.4,32.4,29.96,North,359,0.0,2.0,100,0.00,,,-99.99,Weather View 32 v60,2013-04-15 10:05:00,
2013-04-15 06:10:00,32.4,32.4,29.96,North,359,0.0,2.0,100,0.00,,,-99.99,Weather View 32 v60,2013-04-15 10:10:00,
2013-04-15 06:15:00,32.3,32.3,29.96,North,359,0.0,2.0,100,0.00,,,-99.99,Weather View 32 v60,2013-04-15 10:15:00,
2013-04-15 06:20:00,32.1,32.1,29.97,North,359,0.0,2.0,100,0.00,,,-99.99,Weather View 32 v60,2013-04-15 10:20:00,
2013-04-15 06:25:00,32.0,14.0,29.97,North,359,0.0,2.0,47,0.00,,,-99.99,Weather View 32 v60,2013-04-15 10:25:00,
2013-04-15 06:30:00,32.1,-22.7,29.97,North,359,0.0,2.0,8,0.00,,,-99.99,Weather View 32 v60,2013-04-15 10:30:00,
2013-04-15 06:35:00,32.6,32.6,29.97,North,359,0.0,2.0,100,0.00,,,-99.99,Weather View 32 v60,2013-04-15 10:35:00,
2013-04-15 06:40:00,32.7,32.7,29.98,North,359,0.0,0.0,100,0.00,,,-99.99,Weather View 32 v60,2013-04-15 10:40:00,
2013-04-15 06:45:00,32.9,32.9,29.98,North,359,0.0,0.0,100,0.00,,,-99.99,Weather View 32 v60,2013-04-15 10:45:00,
2013-04-15 06:50:00,33.3,33.3,29.99,North,359,0.0,0.0,100,0.00,,,-99.99,Weather View 32 v60,2013-04-15 10:50:00,
2013-04-15 06:56:00,34.2,-1.7,29.98,North,359,0.0,0.0,21,0.00,,,-99.99,Weather View 32 v60,2013-04-15 10:56:00,
2013-04-15 07:05:00,35.6,34.8,29.99,North,359,0.0,0.0,97,0.00,,,-99.99,Weather View 32 v60,2013-04-15 11:05:00,
2013-04-15 07:10:00,36.1,29.9,29.99,North,359,0.0,0.0,78,0.00,,,-99.99,Weather View 32 v60,2013-04-15 11:10:00,
2013-04-15 07:15:00,37.3,24.3,30.00,North,359,0.0,0.0,59,0.00,,,-99.99,Weather View 32 v60,2013-04-15 11:15:00,
2013-04-15 07:20:00,37.8,16.7,30.00,North,359,0.0,0.0,42,0.00,,,-99.99,Weather View 32 v60,2013-04-15 11:20:00,
2013-04-15 07:25:00,38.4,8.9,30.00,North,359,0.0,0.0,29,0.00,,,-99.99,Weather View 32 v60,2013-04-15 11:25:00,
2013-04-15 07:30:00,39.1,3.4,30.01,North,359,0.0,0.0,22,0.00,,,-99.99,Weather View 32 v60,2013-04-15 11:30:00,
2013-04-15 07:35:00,39.5,39.5,30.01,North,359,0.0,0.0,100,0.00,,,-99.99,Weather View 32 v60,2013-04-15 11:35:00,
2013-04-15 07:40:00,39.1,39.1,30.01,North,359,0.0,0.0,100,0.00,,,-99.99,Weather View 32 v60,2013-04-15 11:40:00,
2013-04-15 07:45:00,38.4,38.4,30.01,North,359,0.0,0.0,100,0.00,,,-99.99,Weather View 32 v60,2013-04-15 11:45:00,
2013-04-15 07:50:00,38.5,-54.3,30.01,North,359,0.0,0.0,1,0.00,,,-99.99,Weather View 32 v60,2013-04-15 11:50:00,
2013-04-15 07:55:00,39.0,-54.0,30.01,North,359,0.0,0.0,1,0.00,,,-99.99,Weather View 32 v60,2013-04-15 11:55:00,
2013-04-15 08:00:00,39.3,39.3,30.02,North,359,0.0,0.0,100,0.00,,,-99.99,Weather View 32 v60,2013-04-15 12:00:00,
2013-04-15 08:05:00,39.7,39.7,30.02,North,359,0.0,0.0,100,0.00,,,-99.99,Weather View 32 v60,2013-04-15 12:05:00,
2013-04-15 08:15:00,40.2,40.2,30.02,North,0,0.0,0.0,100,0.00,,,-99.99,Weather View 32 v60,2013-04-15 12:15:00,
2013-04-15 08:20:00,40.6,40.6,30.03,North,0,0.0,0.0,100,0.00,,,-99.99,Weather View 32 v60,2013-04-15 12:20:00,
2013-04-15 08:25:00,40.9,40.9,30.02,NNW,339,0.0,0.0,100,0.00,,,-99.99,Weather View 32 v60,2013-04-15 12:25:00,
2013-04-15 08:30:00,41.2,41.2,30.03,NW,322,0.0,3.0,100,0.00,,,-99.99,Weather View 32 v60,2013-04-15 12:30:00,
2013-04-15 08:35:00,41.4,41.4,30.03,NW,322,1.0,3.0,100,0.00,,,-99.99,Weather View 32 v60,2013-04-15 12:35:00,
2013-04-15 08:40:00,41.8,41.8,30.03,NW,322,0.0,3.0,100,0.00,,,-99.99,Weather View 32 v60,2013-04-15 12:40:00,
2013-04-15 08:45:00,42.5,42.5,30.03,NW,322,0.0,3.0,100,0.00,,,-99.99,Weather View 32 v60,2013-04-15 12:45:00,
2013-04-15 08:50:00,43.1,43.1,30.03,NW,322,0.0,3.0,100,0.00,,,-99.99,Weather View 32 v60,2013-04-15 12:50:00,
2013-04-15 08:55:00,43.3,43.3,30.03,North,0,0.0,3.0,100,0.00,,,-99.99,Weather View 32 v60,2013-04-15 12:55:00,
2013-04-15 09:00:00,43.5,43.5,30.03,NNE,30,0.0,5.0,100,0.00,,,-99.99,Weather View 32 v60,2013-04-15 13:00:00,
2013-04-15 09:10:00,44.7,44.7,30.03,ESE,112,2.0,10.0,100,0.00,,,-99.99,Weather View 32 v60,2013-04-15 13:10:00,
2013-04-15 09:15:00,45.4,45.4,30.03,NNE,15,0.0,10.0,100,0.00,,,-99.99,Weather View 32 v60,2013-04-15 13:15:00,
2013-04-15 09:20:00,46.1,46.1,30.03,NNE,28,4.0,10.0,100,0.00,,,-99.99,Weather View 32 v60,2013-04-15 13:20:00,
2013-04-15 09:25:00,46.0,46.0,30.03,NE,56,3.0,10.0,100,0.00,,,-99.99,Weather View 32 v60,2013-04-15 13:25:00,
2013-04-15 09:30:00,45.8,45.8,30.03,NNE,17,0.0,10.0,100,0.00,,,-99.99,Weather View 32 v60,2013-04-15 13:30:00,
2013-04-15 09:35:00,45.8,45.8,30.03,NNE,16,2.0,10.0,100,0.00,,,-99.99,Weather View 32 v60,2013-04-15 13:35:00,
2013-04-15 09:40:00,46.1,46.1,30.03,NNE,15,4.0,10.0,100,0.00,,,-99.99,Weather View 32 v60,2013-04-15 13:40:00,
2013-04-15 09:50:00,48.4,-48.2,30.03,SE,144,0.0,10.0,1,0.00,,,-99.99,Weather View 32 v60,2013-04-15 13:50:00,
2013-04-15 09:55:00,49.1,-47.7,30.03,SSE,156,0.0,10.0,1,0.00,,,-99.99,Weather View 32 v60,2013-04-15 13:55:00,
2013-04-15 10:00:00,50.1,-47.1,30.03,East,92,2.0,10.0,1,0.00,,,-99.99,Weather View 32 v60,2013-04-15 14:00:00,
2013-04-15 10:05:00,50.2,-47.1,30.03,ESE,119,5.0,10.0,1,0.00,,,-99.99,Weather View 32 v60,2013-04-15 14:05:00,
2013-04-15 10:10:00,50.0,-22.7,30.03,SSE,147,7.0,10.0,4,0.00,,,-99.99,Weather View 32 v60,2013-04-15 14:10:00,
2013-04-15 10:15:00,49.4,-28.5,30.03,SSE,154,0.0,10.0,3,0.00,,,-99.99,Weather View 32 v60,2013-04-15 14:15:00,
2013-04-15 10:20:00,50.0,-28.0,30.03,SE,126,1.0,10.0,3,0.00,,,-99.99,Weather View 32 v60,2013-04-15 14:20:00,
2013-04-15 10:30:00,50.9,-11.1,30.03,SSE,153,2.0,9.0,7,0.00,,,-99.99,Weather View 32 v60,2013-04-15 14:30:00,
2013-04-15 10:35:00,51.0,-11.1,30.03,South,174,3.0,9.0,7,0.00,,,-99.99,Weather View 32 v60,2013-04-15 14:35:00,
2013-04-15 10:40:00,51.5,-3.4,30.03,ESE,103,2.0,9.0,10,0.00,,,-99.99,Weather View 32 v60,2013-04-15 14:40:00,
2013-04-15 10:45:00,51.3,-8.1,30.03,SSE,155,2.0,9.0,8,0.00,,,-99.99,Weather View 32 v60,2013-04-15 14:45:00,
2013-04-15 10:50:00,51.3,-3.5,30.03,NE,37,0.0,9.0,10,0.00,,,-99.99,Weather View 32 v60,2013-04-15 14:50:00,
2013-04-15 10:58:00,51.5,-5.6,30.03,SE,141,3.0,9.0,9,0.00,,,-99.99,Weather View 32 v60,2013-04-15 14:58:00,
2013-04-15 11:05:00,51.6,-3.3,30.03,East,98,0.0,9.0,10,0.00,,,-99.99,Weather View 32 v60,2013-04-15 15:05:00,
2013-04-15 11:15:00,51.8,-1.1,30.03,ENE,72,0.0,9.0,11,0.00,,,-99.99,Weather View 32 v60,2013-04-15 15:15:00,
2013-04-15 11:20:00,52.4,-0.7,30.03,South,186,2.0,9.0,11,0.00,,,-99.99,Weather View 32 v60,2013-04-15 15:20:00,
2013-04-15 11:25:00,53.5,3.8,30.03,West,265,0.0,9.0,13,0.00,,,-99.99,Weather View 32 v60,2013-04-15 15:25:00,
2013-04-15 11:30:00,52.3,-4.9,30.03,North,358,1.0,7.0,9,0.00,,,-99.99,Weather View 32 v60,2013-04-15 15:30:00,
2013-04-15 11:35:00,51.7,-17.2,30.03,North,358,0.0,7.0,5,0.00,,,-99.99,Weather View 32 v60,2013-04-15 15:35:00,
2013-04-15 11:40:00,51.8,-3.1,30.03,North,4,0.0,7.0,10,0.00,,,-99.99,Weather View 32 v60,2013-04-15 15:40:00,
2013-04-15 11:50:00,50.7,-11.3,30.02,NNW,330,0.0,7.0,7,0.00,,,-99.99,Weather View 32 v60,2013-04-15 15:50:00,
2013-04-15 11:55:00,50.5,-4.1,30.02,North,7,0.0,7.0,10,0.00,,,-99.99,Weather View 32 v60,2013-04-15 15:55:00,
2013-04-15 12:05:00,51.5,-8.0,30.01,North,0,0.0,7.0,8,0.00,,,-99.99,Weather View 32 v60,2013-04-15 16:05:00,
2013-04-15 12:10:00,51.7,5.5,30.02,SW,214,0.0,7.0,15,0.00,,,-99.99,Weather View 32 v60,2013-04-15 16:10:00,
2013-04-15 12:15:00,52.5,11.4,30.01,WNW,283,0.0,6.0,19,0.00,,,-99.99,Weather View 32 v60,2013-04-15 16:15:00,
2013-04-15 12:20:00,52.9,14.0,30.01,South,186,5.0,7.0,21,0.00,,,-99.99,Weather View 32 v60,2013-04-15 16:20:00,
2013-04-15 12:30:00,55.2,15.9,30.01,South,183,0.0,10.0,21,0.00,,,-99.99,Weather View 32 v60,2013-04-15 16:30:00,
2013-04-15 12:35:00,54.4,12.9,30.01,South,183,2.0,10.0,19,0.00,,,-99.99,Weather View 32 v60,2013-04-15 16:35:00,
2013-04-15 12:40:00,53.5,6.9,30.01,North,8,5.0,10.0,15,0.00,,,-99.99,Weather View 32 v60,2013-04-15 16:40:00,
2013-04-15 12:45:00,51.8,8.3,30.00,SW,222,0.0,10.0,17,0.00,,,-99.99,Weather View 32 v60,2013-04-15 16:45:00,
2013-04-15 12:50:00,51.5,8.1,30.00,South,189,0.0,10.0,17,0.00,,,-99.99,Weather View 32 v60,2013-04-15 16:50:00,
2013-04-15 12:55:00,52.2,9.9,30.00,South,172,0.0,10.0,18,0.00,,,-99.99,Weather View 32 v60,2013-04-15 16:55:00,
2013-04-15 13:00:00,53.1,11.9,30.00,WNW,292,0.0,10.0,19,0.00,,,-99.99,Weather View 32 v60,2013-04-15 17:00:00,
2013-04-15 13:05:00,53.6,9.8,30.00,SSW,201,6.0,10.0,17,0.00,,,-99.99,Weather View 32 v60,2013-04-15 17:05:00,
2013-04-15 13:10:00,55.4,16.0,30.00,SSE,149,0.0,10.0,21,0.00,,,-99.99,Weather View 32 v60,2013-04-15 17:10:00,
2013-04-15 13:15:00,55.8,16.4,30.00,SSE,164,4.0,10.0,21,0.00,,,-99.99,Weather View 32 v60,2013-04-15 17:15:00,
2013-04-15 13:21:00,56.1,18.7,30.00,SSW,196,3.0,10.0,23,0.00,,,-99.99,Weather View 32 v60,2013-04-15 17:21:00,
2013-04-15 13:25:00,56.5,20.1,29.99,SSW,192,0.0,9.0,24,0.00,,,-99.99,Weather View 32 v60,2013-04-15 17:25:00,
2013-04-15 13:30:00,56.2,18.8,29.99,SSW,193,4.0,9.0,23,0.00,,,-99.99,Weather View 32 v60,2013-04-15 17:30:00,
2013-04-15 13:35:00,56.0,17.6,29.99,SSW,196,6.0,13.0,22,0.00,,,-99.99,Weather View 32 v60,2013-04-15 17:35:00,
2013-04-15 13:40:00,56.1,16.6,29.99,South,177,0.0,13.0,21,0.00,,,-99.99,Weather View 32 v60,2013-04-15 17:40:00,
2013-04-15 13:45:00,56.1,15.5,29.99,SE,139,0.0,13.0,20,0.00,,,-99.99,Weather View 32 v60,2013-04-15 17:45:00,
2013-04-15 13:50:00,55.8,17.5,29.99,South,174,0.0,13.0,22,0.00,,,-99.99,Weather View 32 v60,2013-04-15 17:50:00,
2013-04-15 13:55:00,56.2,17.8,29.99,SSW,205,0.0,13.0,22,0.00,,,-99.99,Weather View 32 v60,2013-04-15 17:55:00,
2013-04-15 14:05:00,56.5,19.1,29.99,SSE,151,4.0,13.0,23,0.00,,,-99.99,Weather View 32 v60,2013-04-15 18:05:00,
2013-04-15 14:10:00,55.5,16.1,29.99,SSE,167,0.0,13.0,21,0.00,,,-99.99,Weather View 32 v60,2013-04-15 18:10:00,
2013-04-15 14:15:00,55.5,17.2,29.99,SSE,155,0.0,13.0,22,0.00,,,-99.99,Weather View 32 v60,2013-04-15 18:15:00,
2013-04-15 14:20:00,55.4,16.0,29.99,SSW,208,0.0,13.0,21,0.00,,,-99.99,Weather View 32 v60,2013-04-15 18:20:00,
2013-04-15 14:25:00,55.5,12.6,30.00,SSE,164,2.0,13.0,18,0.00,,,-99.99,Weather View 32 v60,2013-04-15 18:25:00,
2013-04-15 14:30:00,56.1,14.3,29.99,SSW,199,1.0,13.0,19,0.00,,,-99.99,Weather View 32 v60,2013-04-15 18:30:00,
2013-04-15 14:35:00,55.4,13.8,29.99,SSW,204,0.0,13.0,19,0.00,,,-99.99,Weather View 32 v60,2013-04-15 18:35:00,
2013-04-15 14:40:00,55.3,13.7,29.99,South,178,6.0,11.0,19,0.00,,,-99.99,Weather View 32 v60,2013-04-15 18:40:00,
2013-04-15 14:45:00,56.2,13.2,29.99,South,189,4.0,12.0,18,0.00,,,-99.99,Weather View 32 v60,2013-04-15 18:45:00,
2013-04-15 14:50:00,55.6,8.6,29.99,ESE,105,0.0,12.0,15,0.00,,,-99.99,Weather View 32 v60,2013-04-15 18:50:00,
2013-04-15 14:55:00,54.6,4.7,29.99,SSW,196,0.0,12.0,13,0.00,,,-99.99,Weather View 32 v60,2013-04-15 18:55:00,
2013-04-15 15:00:00,53.7,-1.7,29.99,ESE,120,5.0,12.0,10,0.00,,,-99.99,Weather View 32 v60,2013-04-15 19:00:00,
2013-04-15 15:05:00,54.0,-1.4,29.99,SSW,192,6.0,14.0,10,0.00,,,-99.99,Weather View 32 v60,2013-04-15 19:05:00,
2013-04-15 15:10:00,54.9,-0.7,29.99,SE,142,4.0,14.0,10,0.00,,,-99.99,Weather View 32 v60,2013-04-15 19:10:00,
2013-04-15 15:15:00,55.3,-0.4,29.99,South,184,2.0,14.0,10,0.00,,,-99.99,Weather View 32 v60,2013-04-15 19:15:00,
2013-04-15 15:25:00,54.7,-0.9,29.99,SSW,203,5.0,14.0,10,0.00,,,-99.99,Weather View 32 v60,2013-04-15 19:25:00,
2013-04-15 15:30:00,54.4,-5.8,29.99,WSW,248,3.0,15.0,8,0.00,,,-99.99,Weather View 32 v60,2013-04-15 19:30:00,
2013-04-15 15:35:00,54.0,-8.8,29.99,SSE,161,2.0,15.0,7,0.00,,,-99.99,Weather View 32 v60,2013-04-15 19:35:00,
2013-04-15 15:40:00,53.8,-12.1,29.99,SSW,205,5.0,15.0,6,0.00,,,-99.99,Weather View 32 v60,2013-04-15 19:40:00,
2013-04-15 15:45:00,53.8,-1.6,29.99,SSW,197,5.0,17.0,10,0.00,,,-99.99,Weather View 32 v60,2013-04-15 19:45:00,
2013-04-15 15:50:00,53.4,-6.5,29.99,SW,221,9.0,17.0,8,0.00,,,-99.99,Weather View 32 v60,2013-04-15 19:50:00,
2013-04-15 15:55:00,53.5,-9.2,29.99,South,176,2.0,17.0,7,0.00,,,-99.99,Weather View 32 v60,2013-04-15 19:55:00,
2013-04-15 16:00:00,53.0,-20.6,29.99,South,181,1.0,17.0,4,0.00,,,-99.99,Weather View 32 v60,2013-04-15 20:00:00,
2013-04-15 16:05:00,53.0,-16.3,29.99,ESE,123,3.0,17.0,5,0.00,,,-99.99,Weather View 32 v60,2013-04-15 20:05:00,
2013-04-15 16:10:00,52.8,-12.8,29.99,South,185,8.0,17.0,6,0.00,,,-99.99,Weather View 32 v60,2013-04-15 20:10:00,
2013-04-15 16:15:00,52.9,-6.9,29.99,SE,146,5.0,17.0,8,0.00,,,-99.99,Weather View 32 v60,2013-04-15 20:15:00,
2013-04-15 16:20:00,52.3,-10.1,29.99,WSW,258,1.0,17.0,7,0.00,,,-99.99,Weather View 32 v60,2013-04-15 20:20:00,
2013-04-15 16:25:00,52.5,-20.9,29.99,SSW,199,11.0,17.0,4,0.00,,,-99.99,Weather View 32 v60,2013-04-15 20:25:00,
2013-04-15 16:30:00,52.3,-21.1,29.99,South,176,3.0,17.0,4,0.00,,,-99.99,Weather View 32 v60,2013-04-15 20:30:00,
2013-04-15 16:35:00,52.1,-16.9,29.99,SSW,204,11.0,17.0,5,0.00,,,-99.99,Weather View 32 v60,2013-04-15 20:35:00,
2013-04-15 16:40:00,51.4,-34.4,29.99,SW,214,0.0,17.0,2,0.00,,,-99.99,Weather View 32 v60,2013-04-15 20:40:00,
2013-04-15 16:45:00,51.3,0.0,29.99,SSW,194,1.0,17.0,0,0.00,,,-99.99,Weather View 32 v60,2013-04-15 20:45:00,
2013-04-15 16:50:00,51.1,0.0,29.99,SSW,193,8.0,16.0,0,0.00,,,-99.99,Weather View 32 v60,2013-04-15 20:50:00,
2013-04-15 16:55:00,50.2,50.2,29.99,South,174,2.0,16.0,100,0.00,,,-99.99,Weather View 32 v60,2013-04-15 20:55:00,
2013-04-15 17:00:00,50.2,50.2,29.99,ESE,109,2.0,16.0,100,0.00,,,-99.99,Weather View 32 v60,2013-04-15 21:00:00,
2013-04-15 17:10:00,49.6,49.6,29.99,SSE,147,2.0,16.0,100,0.00,,,-99.99,Weather View 32 v60,2013-04-15 21:10:00,
2013-04-15 17:15:00,49.5,49.5,29.99,South,177,0.0,16.0,100,0.00,,,-99.99,Weather View 32 v60,2013-04-15 21:15:00,
2013-04-15 17:20:00,49.2,49.2,29.99,ESE,115,0.0,16.0,100,0.00,,,-99.99,Weather View 32 v60,2013-04-15 21:20:00,
2013-04-15 17:25:00,49.0,49.0,30.00,South,174,7.0,16.0,100,0.00,,,-99.99,Weather View 32 v60,2013-04-15 21:25:00,
2013-04-15 17:30:00,49.0,49.0,30.00,South,171,0.0,16.0,100,0.00,,,-99.99,Weather View 32 v60,2013-04-15 21:30:00,
2013-04-15 17:35:00,48.9,48.9,30.00,SSW,204,0.0,16.0,100,0.00,,,-99.99,Weather View 32 v60,2013-04-15 21:35:00,
2013-04-15 17:40:00,49.1,49.1,30.00,SW,216,1.0,16.0,100,0.00,,,-99.99,Weather View 32 v60,2013-04-15 21:40:00,
2013-04-15 17:45:00,49.4,49.4,30.00,South,173,1.0,15.0,100,0.00,,,-99.99,Weather View 32 v60,2013-04-15 21:45:00,
2013-04-15 17:50:00,49.2,49.2,30.01,SSW,198,2.0,14.0,100,0.00,,,-99.99,Weather View 32 v60,2013-04-15 21:50:00,
2013-04-15 17:55:00,49.0,49.0,30.01,SSW,207,5.0,11.0,100,0.00,,,-99.99,Weather View 32 v60,2013-04-15 21:55:00,
2013-04-15 18:00:00,48.7,48.7,30.01,South,177,4.0,11.0,100,0.00,,,-99.99,Weather View 32 v60,2013-04-15 22:00:00,
2013-04-15 18:10:00,48.0,48.0,30.01,SSE,165,0.0,11.0,100,0.00,,,-99.99,Weather View 32 v60,2013-04-15 22:10:00,
2013-04-15 18:15:00,47.7,47.7,30.01,SSE,168,1.0,11.0,100,0.00,,,-99.99,Weather View 32 v60,2013-04-15 22:15:00,
2013-04-15 18:20:00,47.4,47.4,30.01,SE,126,0.0,11.0,100,0.00,,,-99.99,Weather View 32 v60,2013-04-15 22:20:00,
2013-04-15 18:25:00,46.8,46.8,30.01,South,177,1.0,11.0,100,0.00,,,-99.99,Weather View 32 v60,2013-04-15 22:25:00,
2013-04-15 18:30:00,46.4,46.4,30.02,South,174,0.0,11.0,100,0.00,,,-99.99,Weather View 32 v60,2013-04-15 22:30:00,
2013-04-15 18:35:00,46.1,46.1,30.02,SSW,203,5.0,11.0,100,0.00,,,-99.99,Weather View 32 v60,2013-04-15 22:35:00,
2013-04-15 18:40:00,45.7,45.7,30.02,SSE,166,0.0,10.0,100,0.00,,,-99.99,Weather View 32 v60,2013-04-15 22:40:00,
2013-04-15 18:45:00,45.5,45.5,30.02,South,178,5.0,10.0,100,0.00,,,-99.99,Weather View 32 v60,2013-04-15 22:45:00,
2013-04-15 18:50:00,44.8,44.8,30.02,SSE,159,0.0,10.0,100,0.00,,,-99.99,Weather View 32 v60,2013-04-15 22:50:00,
2013-04-15 18:55:00,44.2,44.2,30.03,SSW,200,3.0,9.0,100,0.00,,,-99.99,Weather View 32 v60,2013-04-15 22:55:00,
2013-04-15 19:00:00,43.7,-32.3,30.03,SSW,203,4.0,9.0,3,0.00,,,-99.99,Weather View 32 v60,2013-04-15 23:00:00,
2013-04-15 19:05:00,43.2,1.3,30.03,South,177,0.0,9.0,17,0.00,,,-99.99,Weather View 32 v60,2013-04-15 23:05:00,
2013-04-15 19:10:00,42.8,18.9,30.03,South,175,0.0,9.0,38,0.00,,,-99.99,Weather View 32 v60,2013-04-15 23:10:00,
2013-04-15 19:15:00,42.5,29.2,30.03,SSE,159,0.0,10.0,59,0.00,,,-99.99,Weather View 32 v60,2013-04-15 23:15:00,
2013-04-15 19:20:00,42.1,31.5,30.04,SE,146,0.0,10.0,66,0.00,,,-99.99,Weather View 32 v60,2013-04-15 23:20:00,
2013-04-15 19:25:00,41.9,33.5,30.04,SE,144,0.0,10.0,72,0.00,,,-99.99,Weather View 32 v60,2013-04-15 23:25:00,
2013-04-15 19:30:00,41.5,40.7,30.04,SE,141,0.0,10.0,97,0.00,,,-99.99,Weather View 32 v60,2013-04-15 23:30:00,
2013-04-15 19:35:00,41.3,41.3,30.05,SE,135,0.0,10.0,100,0.00,,,-99.99,Weather View 32 v60,2013-04-15 23:35:00,
2013-04-15 19:40:00,41.1,41.1,30.05,SSE,162,0.0,10.0,100,0.00,,,-99.99,Weather View 32 v60,2013-04-15 23:40:00,
2013-04-15 19:45:00,40.9,40.9,30.05,SE,132,0.0,10.0,100,0.00,,,-99.99,Weather View 32 v60,2013-04-15 23:45:00,
2013-04-15 19:50:00,40.6,40.6,30.05,South,187,0.0,10.0,100,0.00,,,-99.99,Weather View 32 v60,2013-04-15 23:50:00,
2013-04-15 19:55:00,40.4,40.4,30.05,SSE,153,1.0,10.0,100,0.00,,,-99.99,Weather View 32 v60,2013-04-15 23:55:00,
2013-04-15 20:00:00,40.2,23.0,30.05,SSE,147,0.0,10.0,50,0.00,,,-99.99,Weather View 32 v60,2013-04-16 00:00:00,
2013-04-15 20:05:00,39.9,39.9,30.05,South,175,0.0,10.0,100,0.00,,,-99.99,Weather View 32 v60,2013-04-16 00:05:00,
2013-04-15 20:10:00,39.7,39.7,30.06,SSE,168,0.0,10.0,100,0.00,,,-99.99,Weather View 32 v60,2013-04-16 00:10:00,
2013-04-15 20:15:00,39.5,39.5,30.06,SSE,159,0.0,6.0,100,0.00,,,-99.99,Weather View 32 v60,2013-04-16 00:15:00,
2013-04-15 20:20:00,39.3,39.3,30.06,SE,125,0.0,6.0,100,0.00,,,-99.99,Weather View 32 v60,2013-04-16 00:20:00,
2013-04-15 20:25:00,39.2,39.2,30.06,South,173,0.0,7.0,100,0.00,,,-99.99,Weather View 32 v60,2013-04-16 00:25:00,
2013-04-15 20:30:00,39.2,39.2,30.07,South,171,4.0,8.0,100,0.00,,,-99.99,Weather View 32 v60,2013-04-16 00:30:00,
2013-04-15 20:35:00,39.1,29.8,30.07,SSW,192,4.0,8.0,69,0.00,,,-99.99,Weather View 32 v60,2013-04-16 00:35:00,
2013-04-15 20:40:00,39.2,22.1,30.06,SSW,192,0.0,8.0,50,0.00,,,-99.99,Weather View 32 v60,2013-04-16 00:40:00,
2013-04-15 20:45:00,39.2,28.8,30.06,ESE,121,0.0,10.0,66,0.00,,,-99.99,Weather View 32 v60,2013-04-16 00:45:00,
2013-04-15 20:50:00,39.1,32.2,30.06,SSW,201,2.0,10.0,76,0.00,,,-99.99,Weather View 32 v60,2013-04-16 00:50:00,
2013-04-15 20:55:00,39.1,39.1,30.05,SSW,195,2.0,10.0,100,0.00,,,-99.99,Weather View 32 v60,2013-04-16 00:55:00,
2013-04-15 21:00:00,39.1,39.1,30.05,ESE,112,1.0,10.0,100,0.00,,,-99.99,Weather View 32 v60,2013-04-16 01:00:00,
2013-04-15 21:05:00,39.1,9.5,30.05,South,175,0.0,10.0,29,0.00,,,-99.99,Weather View 32 v60,2013-04-16 01:05:00,
2013-04-15 21:10:00,39.1,26.4,30.05,South,188,3.0,10.0,60,0.00,,,-99.99,Weather View 32 v60,2013-04-16 01:10:00,
2013-04-15 21:15:00,39.1,26.4,30.05,South,190,0.0,10.0,60,0.00,,,-99.99,Weather View 32 v60,2013-04-16 01:15:00,
2013-04-15 21:20:00,39.1,39.1,30.05,SSW,199,0.0,10.0,100,0.00,,,-99.99,Weather View 32 v60,2013-04-16 01:20:00,
2013-04-15 21:25:00,39.1,26.4,30.05,SSW,192,0.0,10.0,60,0.00,,,-99.99,Weather View 32 v60,2013-04-16 01:25:00,
2013-04-15 21:35:00,39.3,22.2,30.06,South,182,0.0,10.0,50,0.00,,,-99.99,Weather View 32 v60,2013-04-16 01:35:00,
2013-04-15 21:40:00,39.3,22.2,30.06,SSW,213,2.0,10.0,50,0.00,,,-99.99,Weather View 32 v60,2013-04-16 01:40:00,
2013-04-15 21:50:00,39.3,22.2,30.06,SSW,207,1.0,10.0,50,0.00,,,-99.99,Weather View 32 v60,2013-04-16 01:50:00,
2013-04-15 21:55:00,39.3,32.4,30.06,South,169,3.0,10.0,76,0.00,,,-99.99,Weather View 32 v60,2013-04-16 01:55:00,
2013-04-15 22:00:00,39.3,30.0,30.06,SSE,166,3.0,10.0,69,0.00,,,-99.99,Weather View 32 v60,2013-04-16 02:00:00,
2013-04-15 22:05:00,39.3,24.0,30.06,SSW,201,0.0,10.0,54,0.00,,,-99.99,Weather View 32 v60,2013-04-16 02:05:00,
2013-04-15 22:15:00,39.2,39.2,30.05,South,187,4.0,10.0,100,0.00,,,-99.99,Weather View 32 v60,2013-04-16 02:15:00,
2013-04-15 22:20:00,39.1,23.8,30.05,South,190,0.0,10.0,54,0.00,,,-99.99,Weather View 32 v60,2013-04-16 02:20:00,
2013-04-15 22:25:00,39.1,29.8,30.05,South,191,0.0,10.0,69,0.00,,,-99.99,Weather View 32 v60,2013-04-16 02:25:00,
2013-04-15 22:30:00,39.1,22.0,30.05,SSW,198,0.0,10.0,50,0.00,,,-99.99,Weather View 32 v60,2013-04-16 02:30:00,
2013-04-15 22:35:00,39.1,29.8,30.06,SSW,198,0.0,10.0,69,0.00,,,-99.99,Weather View 32 v60,2013-04-16 02:35:00,
2013-04-15 22:40:00,39.2,22.1,30.06,SSW,196,2.0,9.0,50,0.00,,,-99.99,Weather View 32 v60,2013-04-16 02:40:00,
2013-04-15 22:45:00,39.3,32.4,30.06,SSW,211,0.0,9.0,76,0.00,,,-99.99,Weather View 32 v60,2013-04-16 02:45:00,
2013-04-15 22:50:00,39.3,28.9,30.06,SSW,201,0.0,9.0,66,0.00,,,-99.99,Weather View 32 v60,2013-04-16 02:50:00,
2013-04-15 22:55:00,39.4,22.3,30.06,SSW,206,4.0,9.0,50,0.00,,,-99.99,Weather View 32 v60,2013-04-16 02:55:00,
2013-04-15 23:00:00,39.4,22.3,30.06,SSW,202,2.0,8.0,50,0.00,,,-99.99,Weather View 32 v60,2013-04-16 03:00:00,
2013-04-15 23:06:00,39.4,22.3,30.06,SSW,201,2.0,8.0,50,0.00,,,-99.99,Weather View 32 v60,2013-04-16 03:06:00,
2013-04-15 23:15:00,39.5,22.4,30.06,SSW,198,0.0,8.0,50,0.00,,,-99.99,Weather View 32 v60,2013-04-16 03:15:00,
2013-04-15 23:20:00,39.6,32.7,30.06,SSW,200,0.0,8.0,76,0.00,,,-99.99,Weather View 32 v60,2013-04-16 03:20:00,
2013-04-15 23:25:00,39.5,22.4,30.06,SSW,201,0.0,8.0,50,0.00,,,-99.99,Weather View 32 v60,2013-04-16 03:25:00,
2013-04-15 23:30:00,39.5,32.6,30.06,SSW,200,0.0,8.0,76,0.00,,,-99.99,Weather View 32 v60,2013-04-16 03:30:00,
2013-04-15 23:35:00,39.6,23.9,30.06,SSW,200,0.0,8.0,53,0.00,,,-99.99,Weather View 32 v60,2013-04-16 03:35:00,
2013-04-15 23:40:00,39.6,32.7,30.07,SSW,200,1.0,8.0,76,0.00,,,-99.99,Weather View 32 v60,2013-04-16 03:40:00,
2013-04-15 23:45:00,39.7,32.7,30.07,SSW,200,0.0,8.0,76,0.00,,,-99.99,Weather View 32 v60,2013-04-16 03:45:00,
2013-04-15 23:50:00,39.8,24.0,30.07,SSW,201,0.0,8.0,53,0.00,,,-99.99,Weather View 32 v60,2013-04-16 03:50:00,
2013-04-15 23:55:00,39.8,22.7,30.07,SSW,201,0.0,8.0,50,0.00,,,-99.99,Weather View 32 v60,2013-04-16 03:55:00,